createdAt,value
2022-12-11T00:06:25.653Z,8.30
2022-12-11T00:08:55.280Z,11.35
2022-12-11T00:11:23.751Z,6.70
2022-12-11T00:18:39.630Z,11.17
2022-12-11T00:21:12.439Z,11.25
2022-12-11T00:24:31.461Z,9.98
2022-12-11T00:26:59.358Z,7.60
2022-12-11T00:29:27.777Z,8.73
2022-12-11T00:32:01.404Z,14.87
2022-12-11T00:34:29.650Z,10.38
2022-12-11T00:36:59.307Z,12.48
2022-12-11T00:39:27.216Z,16.17
2022-12-11T00:43:10.003Z,24.25
2022-12-11T00:50:07.181Z,18.45
2022-12-11T00:52:35.138Z,18.63
2022-12-11T00:55:03.107Z,20.27
2022-12-11T01:07:48.006Z,16.02
2022-12-11T01:10:33.287Z,18.27
2022-12-11T01:13:05.319Z,17.63
2022-12-11T01:15:41.535Z,17.80
2022-12-11T01:18:59.915Z,17.83
2022-12-11T01:21:28.046Z,15.85
2022-12-11T01:23:55.813Z,16.55
2022-12-11T01:26:26.969Z,18.50
2022-12-11T01:28:54.708Z,15.30
2022-12-11T01:31:22.689Z,20.00
2022-12-11T01:33:50.444Z,16.50
2022-12-11T01:36:23.809Z,17.00
2022-12-11T01:38:53.887Z,18.73
2022-12-11T01:41:22.304Z,16.35
2022-12-11T01:43:56.957Z,17.70
2022-12-11T01:47:15.001Z,16.65
2022-12-11T01:49:44.356Z,20.05
2022-12-11T01:52:19.820Z,16.55
2022-12-11T01:54:49.171Z,17.23
2022-12-11T01:57:17.029Z,20.87
2022-12-11T01:59:46.927Z,18.30
2022-12-11T02:02:29.806Z,21.05
2022-12-11T02:04:58.067Z,17.08
2022-12-11T02:07:25.699Z,18.42
2022-12-11T02:09:58.823Z,18.00
2022-12-11T02:12:43.189Z,23.73
2022-12-11T02:20:13.345Z,14.60
2022-12-11T02:23:03.009Z,23.35
2022-12-11T02:29:54.220Z,20.58
2022-12-11T02:37:04.829Z,18.23
2022-12-11T02:39:36.567Z,18.98
2022-12-11T02:42:05.616Z,18.03
2022-12-11T02:44:35.351Z,15.85
2022-12-11T02:47:07.659Z,18.10
2022-12-11T02:58:26.049Z,21.33
2022-12-11T03:00:53.893Z,20.05
2022-12-11T03:03:23.230Z,18.55
2022-12-11T03:05:51.125Z,19.05
2022-12-11T03:08:19.277Z,23.15
2022-12-11T03:10:47.337Z,19.57
2022-12-11T03:13:18.562Z,18.08
2022-12-11T03:25:08.249Z,20.52
2022-12-11T03:32:20.147Z,22.95
2022-12-11T03:39:32.361Z,21.83
2022-12-11T03:42:28.804Z,23.42
2022-12-11T03:44:59.349Z,20.30
2022-12-11T03:47:30.256Z,24.20
2022-12-11T03:50:00.081Z,21.67
2022-12-11T03:57:22.887Z,19.15
2022-12-11T03:59:51.265Z,20.17
2022-12-11T04:02:19.144Z,21.38
2022-12-11T04:04:46.774Z,20.05
2022-12-11T04:07:14.934Z,21.35
2022-12-11T04:14:33.517Z,18.87
2022-12-11T04:17:01.808Z,19.50
2022-12-11T04:23:55.241Z,18.35
2022-12-11T04:26:23.418Z,18.55
2022-12-11T04:28:51.113Z,15.60
2022-12-11T04:31:22.435Z,17.48
2022-12-11T04:33:51.307Z,19.48
2022-12-11T04:36:19.325Z,15.77
2022-12-11T04:38:47.077Z,23.02
2022-12-11T04:41:17.334Z,18.77
2022-12-11T04:43:45.550Z,19.15
2022-12-11T04:46:20.387Z,48.33
2022-12-11T04:49:37.494Z,28.63
2022-12-11T04:55:59.280Z,3.13
2022-12-11T04:58:28.338Z,2.88
2022-12-11T05:00:56.123Z,2.95
2022-12-11T05:03:50.431Z,5.38
2022-12-11T05:06:18.465Z,6.82
2022-12-11T05:08:46.659Z,5.53
2022-12-11T05:11:16.140Z,5.57
2022-12-11T05:13:45.102Z,6.10
2022-12-11T05:16:16.368Z,5.95
2022-12-11T05:18:44.993Z,5.75
2022-12-11T05:25:19.771Z,6.60
2022-12-11T05:27:47.453Z,9.48
2022-12-11T05:30:15.744Z,9.60
2022-12-11T05:32:43.490Z,7.35
2022-12-11T05:35:36.408Z,7.03
2022-12-11T05:38:04.212Z,7.82
2022-12-11T05:40:32.829Z,7.22
2022-12-11T05:43:00.678Z,12.40
2022-12-11T05:45:28.860Z,8.85
2022-12-11T05:47:56.958Z,9.10
2022-12-11T05:50:25.018Z,11.18
2022-12-11T05:52:52.788Z,9.70
2022-12-11T05:55:20.836Z,10.70
2022-12-11T05:57:48.869Z,10.18
2022-12-11T06:00:45.768Z,13.47
2022-12-11T06:03:13.645Z,14.50
2022-12-11T06:06:32.386Z,12.65
2022-12-11T06:17:58.757Z,22.03
2022-12-11T06:25:15.613Z,18.85
2022-12-11T06:27:43.803Z,15.10
2022-12-11T06:30:12.081Z,15.63
2022-12-11T06:33:55.020Z,11.30
2022-12-11T06:42:27.212Z,13.07
2022-12-11T06:44:58.318Z,14.32
2022-12-11T06:47:30.431Z,11.35
2022-12-11T06:49:58.689Z,16.73
2022-12-11T06:52:30.151Z,17.35
2022-12-11T06:54:58.395Z,14.85
2022-12-11T06:57:26.139Z,9.68
2022-12-11T07:04:02.751Z,1.40
2022-12-11T07:06:31.611Z,2.20
2022-12-11T07:13:31.447Z,4.00
2022-12-11T07:16:00.824Z,3.28
2022-12-11T07:18:29.123Z,18.47
2022-12-11T07:29:59.526Z,3.53
2022-12-11T07:32:27.596Z,5.78
2022-12-11T07:39:53.427Z,4.30
2022-12-11T07:42:21.438Z,6.90
2022-12-11T07:45:15.421Z,4.07
2022-12-11T07:47:44.354Z,5.00
2022-12-11T07:50:15.927Z,6.07
2022-12-11T07:52:43.672Z,6.05
2022-12-11T07:59:54.531Z,5.47
2022-12-11T08:02:49.101Z,4.05
2022-12-11T08:05:17.113Z,6.30
2022-12-11T08:07:49.282Z,6.60
2022-12-11T08:15:06.441Z,4.57
2022-12-11T08:18:00.549Z,3.25
2022-12-11T08:20:29.350Z,8.07
2022-12-11T08:22:59.458Z,2.70
2022-12-11T08:25:28.380Z,5.22
2022-12-11T08:28:23.316Z,2.90
2022-12-11T08:30:51.731Z,5.13
2022-12-11T08:33:22.421Z,3.00
2022-12-11T08:36:33.889Z,3.15
2022-12-11T08:39:02.002Z,3.78
2022-12-11T08:53:59.652Z,10.70
2022-12-11T08:56:57.716Z,6.97
2022-12-11T09:03:58.054Z,5.28
2022-12-11T09:06:29.487Z,8.23
2022-12-11T09:09:01.706Z,8.07
2022-12-11T09:11:35.292Z,5.15
2022-12-11T09:14:07.615Z,3.03
2022-12-11T09:16:44.076Z,4.57
2022-12-11T09:19:14.816Z,3.67
2022-12-11T09:21:43.806Z,3.60
2022-12-11T09:24:13.981Z,3.95
2022-12-11T09:26:42.875Z,4.80
2022-12-11T09:29:12.645Z,4.85
2022-12-11T09:31:41.391Z,3.87
2022-12-11T09:34:37.604Z,5.15
2022-12-11T09:41:40.939Z,6.20
2022-12-11T09:44:11.694Z,7.07
2022-12-11T09:46:41.181Z,5.37
2022-12-11T09:49:39.637Z,4.15
2022-12-11T09:52:18.105Z,3.40
2022-12-11T09:59:28.312Z,2.58
2022-12-11T10:02:41.238Z,3.77
2022-12-11T10:06:06.146Z,3.72
2022-12-11T10:08:52.285Z,4.18
2022-12-11T10:11:56.125Z,3.55
2022-12-11T10:18:39.186Z,2.90
2022-12-11T10:21:08.623Z,2.40
2022-12-11T10:24:11.800Z,2.20
2022-12-11T10:31:15.626Z,2.50
2022-12-11T10:38:44.025Z,1.52
2022-12-11T10:41:16.151Z,3.38
2022-12-11T10:43:47.385Z,2.15
2022-12-11T10:46:18.229Z,4.43
2022-12-11T10:48:53.732Z,3.10
2022-12-11T10:52:25.263Z,2.03
2022-12-11T10:59:25.027Z,2.83
2022-12-11T11:01:53.948Z,2.67
2022-12-11T11:04:37.007Z,3.50
2022-12-11T11:07:14.252Z,3.15
2022-12-11T11:09:42.307Z,3.90
2022-12-11T11:12:26.520Z,2.38
2022-12-11T11:15:23.872Z,2.60
2022-12-11T11:17:56.154Z,4.87
2022-12-11T11:20:29.941Z,3.78
2022-12-11T11:23:04.579Z,3.05
2022-12-11T11:25:34.303Z,3.08
2022-12-11T11:28:17.475Z,2.88
2022-12-11T11:31:11.231Z,4.43
2022-12-11T11:33:59.430Z,4.10
2022-12-11T11:36:29.879Z,3.03
2022-12-11T11:39:17.232Z,5.82
2022-12-11T11:41:54.818Z,5.18
2022-12-11T11:44:41.992Z,4.27
2022-12-11T11:51:40.668Z,3.42
2022-12-11T11:54:41.238Z,4.28
2022-12-11T12:01:20.352Z,3.43
2022-12-11T12:03:50.189Z,2.78
2022-12-11T12:06:50.349Z,3.90
2022-12-11T12:09:33.009Z,4.25
2022-12-11T12:15:46.929Z,11.30
2022-12-11T12:22:32.338Z,18.75
2022-12-11T12:25:54.717Z,3.10
2022-12-11T12:37:13.358Z,3.72
2022-12-11T12:40:39.666Z,8.10
2022-12-11T12:44:10.331Z,4.45
2022-12-11T12:50:56.232Z,1.93
2022-12-11T12:53:27.507Z,4.28
2022-12-11T12:55:57.029Z,3.33
2022-12-11T12:58:31.883Z,3.00
2022-12-11T13:05:46.602Z,18.73
2022-12-11T13:09:15.561Z,9.02
2022-12-11T13:11:45.572Z,13.95
2022-12-11T13:14:16.493Z,14.57
2022-12-11T13:16:49.244Z,4.30
2022-12-11T13:19:39.052Z,2.43
2022-12-11T13:22:13.743Z,3.30
2022-12-11T13:25:02.165Z,2.47
2022-12-11T13:27:30.488Z,1.40
2022-12-11T13:30:16.713Z,2.08
2022-12-11T13:33:15.224Z,2.17
2022-12-11T13:35:43.565Z,4.70
2022-12-11T13:38:21.207Z,4.63
2022-12-11T13:40:54.865Z,4.13
2022-12-11T13:43:27.604Z,3.95
2022-12-11T13:45:59.277Z,2.93
2022-12-11T13:48:48.267Z,2.13
2022-12-11T13:51:22.930Z,2.00
2022-12-11T13:54:07.161Z,2.33
2022-12-11T13:56:34.983Z,2.08
2022-12-11T13:59:03.650Z,3.33
2022-12-11T14:01:34.710Z,3.55
2022-12-11T14:04:16.373Z,2.95
2022-12-11T14:06:44.279Z,4.70
2022-12-11T14:09:21.717Z,3.38
2022-12-11T14:11:56.459Z,14.33
2022-12-11T14:14:32.525Z,7.88
2022-12-11T14:17:01.354Z,8.75
2022-12-11T14:19:30.993Z,20.40
2022-12-11T14:22:05.566Z,7.65
2022-12-11T14:24:34.019Z,3.77
2022-12-11T14:33:56.285Z,7.55
2022-12-11T14:36:56.404Z,15.77
2022-12-11T14:39:41.030Z,18.00
2022-12-11T14:42:14.067Z,23.80
2022-12-11T14:44:49.814Z,11.90
2022-12-11T14:47:23.996Z,4.32
2022-12-11T14:54:08.009Z,4.87
2022-12-11T14:57:02.129Z,3.25
2022-12-11T14:59:32.541Z,34.58
2022-12-11T15:02:18.661Z,7.55
2022-12-11T15:09:34.620Z,4.40
2022-12-11T15:16:34.892Z,3.92
2022-12-11T15:20:15.251Z,3.03
2022-12-11T15:22:45.006Z,8.30
2022-12-11T15:25:50.393Z,3.60
2022-12-11T15:28:36.382Z,5.75
2022-12-11T15:31:08.004Z,4.85
2022-12-11T15:33:48.868Z,4.93
2022-12-11T15:36:40.497Z,3.88
2022-12-11T15:39:09.904Z,3.37
2022-12-11T15:41:41.336Z,3.63
2022-12-11T15:44:19.014Z,6.43
2022-12-11T15:46:47.082Z,8.00
2022-12-11T15:49:15.529Z,9.10
2022-12-11T15:51:46.730Z,8.83
2022-12-11T15:54:15.399Z,6.07
2022-12-11T15:56:43.714Z,9.15
2022-12-11T15:59:12.523Z,7.53
2022-12-11T16:01:40.607Z,5.53
2022-12-11T16:04:09.163Z,5.40
2022-12-11T16:06:37.139Z,6.53
2022-12-11T16:09:06.480Z,7.13
2022-12-11T16:11:34.472Z,7.75
2022-12-11T16:14:05.001Z,15.35
2022-12-11T16:16:34.797Z,9.13
2022-12-11T16:19:02.979Z,6.93
2022-12-11T16:21:30.976Z,6.28
2022-12-11T16:23:59.162Z,7.65
2022-12-11T16:26:27.546Z,7.13
2022-12-11T16:28:55.709Z,11.17
2022-12-11T16:32:13.336Z,8.35
2022-12-11T16:34:42.006Z,6.70
2022-12-11T16:37:10.812Z,7.32
2022-12-11T16:39:39.731Z,6.20
2022-12-11T16:42:07.563Z,6.63
2022-12-11T16:44:43.825Z,7.60
2022-12-11T16:47:12.825Z,6.05
2022-12-11T16:49:45.608Z,6.75
2022-12-11T16:52:16.413Z,5.13
2022-12-11T16:55:15.950Z,5.97
2022-12-11T16:57:44.217Z,4.22
2022-12-11T17:00:13.335Z,6.55
2022-12-11T17:02:41.673Z,10.00
2022-12-11T17:05:10.538Z,8.80
2022-12-11T17:07:38.891Z,9.47
2022-12-11T17:10:07.568Z,15.10
2022-12-11T17:12:35.504Z,11.48
2022-12-11T17:15:04.264Z,14.20
2022-12-11T17:17:32.491Z,17.50
2022-12-11T17:20:00.535Z,22.93
2022-12-11T17:22:29.112Z,18.00
2022-12-11T17:24:57.459Z,26.33
2022-12-11T17:27:25.413Z,20.40
2022-12-11T17:29:53.945Z,28.38
2022-12-11T17:32:21.851Z,26.77
2022-12-11T17:34:51.128Z,52.40
2022-12-11T17:37:19.355Z,85.57
2022-12-11T17:39:48.478Z,25.17
2022-12-11T17:42:16.554Z,36.00
2022-12-11T17:45:34.582Z,27.23
2022-12-11T17:48:02.588Z,12.90
2022-12-11T17:50:31.388Z,8.48
2022-12-11T17:52:59.706Z,11.15
2022-12-11T17:55:28.201Z,11.10
2022-12-11T18:02:29.026Z,6.20
2022-12-11T18:04:56.946Z,10.50
2022-12-11T18:07:25.601Z,9.10
2022-12-11T18:09:54.473Z,12.20
2022-12-11T18:12:22.578Z,55.57
2022-12-11T18:14:50.525Z,63.95
2022-12-11T18:17:18.541Z,25.77
2022-12-11T18:19:46.867Z,32.40
2022-12-11T18:22:14.940Z,10.60
2022-12-11T18:24:44.182Z,21.47
2022-12-11T18:27:14.756Z,14.75
2022-12-11T18:29:42.748Z,11.77
2022-12-11T18:32:10.857Z,5.47
2022-12-11T18:34:38.622Z,7.43
2022-12-11T18:37:07.475Z,12.10
2022-12-11T18:39:35.668Z,13.68
2022-12-11T18:42:31.543Z,7.07
2022-12-11T18:44:56.948Z,10.30
2022-12-11T18:52:24.805Z,7.77
2022-12-11T18:55:24.984Z,10.27
2022-12-11T18:57:54.223Z,8.88
2022-12-11T19:13:19.034Z,8.70
2022-12-11T19:16:43.730Z,7.40
2022-12-11T19:23:02.519Z,14.35
2022-12-11T19:26:24.619Z,11.93
2022-12-11T19:28:53.740Z,20.60
2022-12-11T19:32:13.897Z,78.43
2022-12-11T19:34:41.866Z,37.38
2022-12-11T19:38:02.691Z,15.68
2022-12-11T19:40:30.878Z,14.53
2022-12-11T19:42:58.917Z,18.58
2022-12-11T19:45:27.699Z,14.65
2022-12-11T19:47:55.617Z,14.23
2022-12-11T19:50:23.732Z,18.38
2022-12-11T19:52:52.857Z,81.47
2022-12-11T19:55:21.934Z,16.48
2022-12-11T19:57:49.437Z,14.60
2022-12-11T20:00:17.794Z,14.25
2022-12-11T20:02:45.446Z,28.20
2022-12-11T20:06:03.769Z,9.47
2022-12-11T20:08:47.711Z,8.25
2022-12-11T20:11:19.048Z,12.27
2022-12-11T20:13:48.500Z,29.98
2022-12-11T20:16:20.020Z,19.30
2022-12-11T20:19:46.492Z,13.03
2022-12-11T20:22:15.862Z,8.80
2022-12-11T20:24:43.501Z,15.20
2022-12-11T20:27:37.736Z,24.08
2022-12-11T20:30:33.842Z,35.20
2022-12-11T20:33:01.950Z,25.17
2022-12-11T20:35:29.931Z,8.43
2022-12-11T20:37:59.444Z,7.70
2022-12-11T20:40:27.133Z,8.85
2022-12-11T20:42:56.274Z,26.52
2022-12-11T20:45:25.324Z,11.13
2022-12-11T20:47:53.674Z,8.18
2022-12-11T20:50:21.317Z,7.57
2022-12-11T20:52:49.393Z,8.55
2022-12-11T20:55:17.103Z,7.30
2022-12-11T21:02:18.059Z,7.75
2022-12-11T21:04:45.840Z,7.75
2022-12-11T21:07:13.996Z,8.68
2022-12-11T21:09:42.120Z,8.30
2022-12-11T21:12:10.766Z,7.47
2022-12-11T21:14:39.183Z,8.13
2022-12-11T21:17:07.848Z,8.23
2022-12-11T21:19:35.532Z,6.40
2022-12-11T21:22:04.200Z,9.32
2022-12-11T21:24:36.969Z,7.67
2022-12-11T21:27:06.356Z,7.65
2022-12-11T21:29:34.185Z,7.60
2022-12-11T21:32:02.311Z,10.85
2022-12-11T21:34:30.179Z,9.95
2022-12-11T21:36:58.468Z,9.67
2022-12-11T21:39:28.583Z,9.40
2022-12-11T21:41:58.348Z,9.02
2022-12-11T21:45:58.800Z,10.90
2022-12-11T21:47:14.208Z,26.05
2022-12-11T21:53:47.450Z,9.80
2022-12-11T21:56:18.415Z,9.43
2022-12-11T21:58:47.427Z,8.93
2022-12-11T22:01:21.524Z,8.98
2022-12-11T22:04:39.948Z,8.03
2022-12-11T22:07:08.353Z,7.25
2022-12-11T22:09:35.933Z,6.75
2022-12-11T22:12:04.195Z,6.88
2022-12-11T22:14:31.771Z,7.25
2022-12-11T22:17:00.544Z,6.53
2022-12-11T22:19:32.443Z,8.32
2022-12-11T22:22:00.765Z,10.07
2022-12-11T22:24:28.325Z,9.85
2022-12-11T22:26:56.838Z,9.75
2022-12-11T22:29:24.863Z,15.33
2022-12-11T22:31:53.722Z,14.82
2022-12-11T22:34:21.848Z,14.20
2022-12-11T22:36:50.024Z,8.68
2022-12-11T22:43:24.518Z,8.47
2022-12-11T22:45:52.131Z,8.57
2022-12-11T22:48:20.180Z,8.05
2022-12-11T22:50:47.800Z,10.02
2022-12-11T22:53:15.835Z,8.38
2022-12-11T22:55:43.447Z,9.90
2022-12-11T22:58:11.552Z,10.98
2022-12-11T23:00:41.304Z,8.98
2022-12-11T23:03:09.852Z,10.00
2022-12-11T23:05:40.286Z,10.20
2022-12-11T23:08:08.536Z,8.13
2022-12-11T23:10:36.121Z,8.38
2022-12-11T23:17:35.434Z,8.32
2022-12-11T23:20:05.910Z,7.93
2022-12-11T23:22:33.928Z,9.33
2022-12-11T23:25:01.566Z,8.40
2022-12-11T23:27:33.890Z,11.18
2022-12-11T23:30:01.580Z,9.25
2022-12-11T23:32:29.393Z,8.65
2022-12-11T23:36:12.482Z,11.20
2022-12-11T23:38:41.239Z,11.85
2022-12-11T23:51:01.195Z,10.20
2022-12-11T23:53:30.686Z,9.13
2022-12-11T23:56:06.906Z,9.85
2022-12-11T23:58:39.155Z,11.27
